sensor_id;sensor_type;location;lat;lon;timestamp;pressure;altitude;pressure_sealevel;temperature;humidity
8894;BME280;4483;48.622;9.230;2024-01-06T00:00:45;96700.88;;;5.76;100.00
8894;BME280;4483;48.622;9.230;2024-01-06T00:03:14;96713.66;;;5.76;100.00
8894;BME280;4483;48.622;9.230;2024-01-06T00:05:41;96704.22;;;5.77;100.00
8894;BME280;4483;48.622;9.230;2024-01-06T00:08:09;96709.34;;;5.77;100.00
8894;BME280;4483;48.622;9.230;2024-01-06T00:10:35;96722.91;;;5.79;100.00
8894;BME280;4483;48.622;9.230;2024-01-06T00:13:02;96716.13;;;5.78;100.00
8894;BME280;4483;48.622;9.230;2024-01-06T00:15:29;96719.56;;;5.77;100.00
8894;BME280;4483;48.622;9.230;2024-01-06T00:17:55;96710.31;;;5.74;100.00
8894;BME280;4483;48.622;9.230;2024-01-06T00:20:22;96719.69;;;5.74;100.00
8894;BME280;4483;48.622;9.230;2024-01-06T00:22:49;96726.50;;;5.75;100.00
8894;BME280;4483;48.622;9.230;2024-01-06T00:25:17;96723.97;;;5.73;100.00
8894;BME280;4483;48.622;9.230;2024-01-06T00:27:43;96726.53;;;5.73;100.00
8894;BME280;4483;48.622;9.230;2024-01-06T00:30:10;96724.94;;;5.71;100.00
8894;BME280;4483;48.622;9.230;2024-01-06T00:32:37;96727.56;;;5.69;100.00
8894;BME280;4483;48.622;9.230;2024-01-06T00:35:04;96729.22;;;5.70;100.00
8894;BME280;4483;48.622;9.230;2024-01-06T00:37:31;96728.38;;;5.70;100.00
8894;BME280;4483;48.622;9.230;2024-01-06T00:39:59;96730.94;;;5.70;100.00
8894;BME280;4483;48.622;9.230;2024-01-06T00:42:27;96734.31;;;5.70;100.00
8894;BME280;4483;48.622;9.230;2024-01-06T00:44:53;96729.28;;;5.69;100.00
8894;BME280;4483;48.622;9.230;2024-01-06T00:47:20;96728.44;;;5.68;100.00
8894;BME280;4483;48.622;9.230;2024-01-06T00:49:49;96733.59;;;5.67;100.00
8894;BME280;4483;48.622;9.230;2024-01-06T00:52:16;96731.91;;;5.67;100.00
8894;BME280;4483;48.622;9.230;2024-01-06T00:54:42;96741.41;;;5.64;100.00
8894;BME280;4483;48.622;9.230;2024-01-06T00:57:09;96737.16;;;5.63;100.00
8894;BME280;4483;48.622;9.230;2024-01-06T00:59:37;96735.53;;;5.62;100.00
8894;BME280;4483;48.622;9.230;2024-01-06T01:02:04;96739.78;;;5.61;100.00
8894;BME280;4483;48.622;9.230;2024-01-06T01:04:30;96742.41;;;5.60;100.00
8894;BME280;4483;48.622;9.230;2024-01-06T01:06:57;96740.78;;;5.57;100.00
8894;BME280;4483;48.622;9.230;2024-01-06T01:09:23;96742.63;;;5.54;100.00
8894;BME280;4483;48.622;9.230;2024-01-06T01:11:50;96746.19;;;5.50;100.00
8894;BME280;4483;48.622;9.230;2024-01-06T01:14:17;96744.59;;;5.47;100.00
8894;BME280;4483;48.622;9.230;2024-01-06T01:16:45;96743.75;;;5.47;100.00
8894;BME280;4483;48.622;9.230;2024-01-06T01:19:12;96743.81;;;5.45;100.00
8894;BME280;4483;48.622;9.230;2024-01-06T01:21:38;96748.94;;;5.45;100.00
8894;BME280;4483;48.622;9.230;2024-01-06T01:24:05;96753.25;;;5.43;100.00
8894;BME280;4483;48.622;9.230;2024-01-06T01:26:32;96759.22;;;5.44;100.00
8894;BME280;4483;48.622;9.230;2024-01-06T01:28:59;96761.75;;;5.44;100.00
8894;BME280;4483;48.622;9.230;2024-01-06T01:31:25;96760.94;;;5.43;100.00
8894;BME280;4483;48.622;9.230;2024-01-06T01:33:53;96759.25;;;5.42;100.00
8894;BME280;4483;48.622;9.230;2024-01-06T01:36:20;96768.66;;;5.42;100.00
8894;BME280;4483;48.622;9.230;2024-01-06T01:38:47;96763.59;;;5.40;100.00
8894;BME280;4483;48.622;9.230;2024-01-06T01:41:13;96770.44;;;5.40;100.00
8894;BME280;4483;48.622;9.230;2024-01-06T01:43:40;96763.75;;;5.36;100.00
8894;BME280;4483;48.622;9.230;2024-01-06T01:46:06;96777.44;;;5.35;100.00
8894;BME280;4483;48.622;9.230;2024-01-06T01:48:33;96769.78;;;5.35;100.00
8894;BME280;4483;48.622;9.230;2024-01-06T01:51:02;96780.00;;;5.35;100.00
8894;BME280;4483;48.622;9.230;2024-01-06T01:53:29;96779.22;;;5.33;100.00
8894;BME280;4483;48.622;9.230;2024-01-06T01:55:57;96783.47;;;5.32;100.00
8894;BME280;4483;48.622;9.230;2024-01-06T01:58:24;96789.44;;;5.31;100.00
8894;BME280;4483;48.622;9.230;2024-01-06T02:00:51;96797.13;;;5.31;100.00
8894;BME280;4483;48.622;9.230;2024-01-06T02:03:18;96790.28;;;5.32;100.00
8894;BME280;4483;48.622;9.230;2024-01-06T02:05:45;96785.25;;;5.30;100.00
8894;BME280;4483;48.622;9.230;2024-01-06T02:08:13;96792.06;;;5.30;100.00
8894;BME280;4483;48.622;9.230;2024-01-06T02:10:40;96791.25;;;5.29;100.00
8894;BME280;4483;48.622;9.230;2024-01-06T02:13:08;96793.84;;;5.28;100.00
8894;BME280;4483;48.622;9.230;2024-01-06T02:15:35;96794.69;;;5.28;100.00
8894;BME280;4483;48.622;9.230;2024-01-06T02:18:02;96795.59;;;5.27;100.00
8894;BME280;4483;48.622;9.230;2024-01-06T02:20:30;96799.00;;;5.26;100.00
8894;BME280;4483;48.622;9.230;2024-01-06T02:22:58;96796.53;;;5.25;100.00
8894;BME280;4483;48.622;9.230;2024-01-06T02:25:26;96800.78;;;5.24;100.00
8894;BME280;4483;48.622;9.230;2024-01-06T02:27:52;96810.19;;;5.24;100.00
8894;BME280;4483;48.622;9.230;2024-01-06T02:30:19;96801.75;;;5.22;100.00
8894;BME280;4483;48.622;9.230;2024-01-06T02:32:46;96805.94;;;5.23;100.00
8894;BME280;4483;48.622;9.230;2024-01-06T02:35:12;96812.00;;;5.20;100.00
8894;BME280;4483;48.622;9.230;2024-01-06T02:37:39;96806.88;;;5.20;100.00
8894;BME280;4483;48.622;9.230;2024-01-06T02:40:08;96804.38;;;5.19;100.00
8894;BME280;4483;48.622;9.230;2024-01-06T02:42:35;96808.69;;;5.18;100.00
8894;BME280;4483;48.622;9.230;2024-01-06T02:45:02;96798.50;;;5.17;100.00
8894;BME280;4483;48.622;9.230;2024-01-06T02:47:29;96795.94;;;5.17;100.00
8894;BME280;4483;48.622;9.230;2024-01-06T02:49:55;96803.59;;;5.17;100.00
8894;BME280;4483;48.622;9.230;2024-01-06T02:52:22;96802.81;;;5.16;100.00
8894;BME280;4483;48.622;9.230;2024-01-06T02:54:49;96810.47;;;5.16;100.00
8894;BME280;4483;48.622;9.230;2024-01-06T02:57:16;96801.97;;;5.16;100.00
8894;BME280;4483;48.622;9.230;2024-01-06T02:59:43;96805.41;;;5.15;100.00
8894;BME280;4483;48.622;9.230;2024-01-06T03:02:11;96801.97;;;5.16;100.00
8894;BME280;4483;48.622;9.230;2024-01-06T03:04:37;96808.84;;;5.13;100.00
8894;BME280;4483;48.622;9.230;2024-01-06T03:07:04;96808.06;;;5.11;100.00
8894;BME280;4483;48.622;9.230;2024-01-06T03:09:31;96807.22;;;5.11;100.00
8894;BME280;4483;48.622;9.230;2024-01-06T03:11:57;96814.06;;;5.10;100.00
8894;BME280;4483;48.622;9.230;2024-01-06T03:14:25;96808.94;;;5.10;100.00
8894;BME280;4483;48.622;9.230;2024-01-06T03:16:52;96797.84;;;5.11;100.00
8894;BME280;4483;48.622;9.230;2024-01-06T03:19:19;96796.13;;;5.12;100.00
8894;BME280;4483;48.622;9.230;2024-01-06T03:21:45;96798.81;;;5.09;100.00
8894;BME280;4483;48.622;9.230;2024-01-06T03:24:12;96801.38;;;5.07;100.00
8894;BME280;4483;48.622;9.230;2024-01-06T03:26:39;96797.91;;;5.10;100.00
8894;BME280;4483;48.622;9.230;2024-01-06T03:29:05;96798.94;;;5.04;100.00
8894;BME280;4483;48.622;9.230;2024-01-06T03:31:33;96804.91;;;5.05;100.00
8894;BME280;4483;48.622;9.230;2024-01-06T03:34:00;96796.41;;;5.04;100.00
8894;BME280;4483;48.622;9.230;2024-01-06T03:36:26;96799.00;;;5.03;100.00
8894;BME280;4483;48.622;9.230;2024-01-06T03:38:53;96794.84;;;5.00;100.00
8894;BME280;4483;48.622;9.230;2024-01-06T03:41:19;96794.06;;;4.98;100.00
8894;BME280;4483;48.622;9.230;2024-01-06T03:43:46;96791.56;;;4.97;100.00
8894;BME280;4483;48.622;9.230;2024-01-06T03:46:13;96795.81;;;4.96;100.00
8894;BME280;4483;48.622;9.230;2024-01-06T03:48:41;96799.38;;;4.92;100.00
8894;BME280;4483;48.622;9.230;2024-01-06T03:51:07;96803.66;;;4.92;100.00
8894;BME280;4483;48.622;9.230;2024-01-06T03:53:34;96806.25;;;4.90;100.00
8894;BME280;4483;48.622;9.230;2024-01-06T03:56:00;96805.41;;;4.90;100.00
8894;BME280;4483;48.622;9.230;2024-01-06T03:58:27;96808.84;;;4.89;100.00
8894;BME280;4483;48.622;9.230;2024-01-06T04:00:54;96812.28;;;4.88;100.00
8894;BME280;4483;48.622;9.230;2024-01-06T04:03:21;96820.84;;;4.87;100.00
8894;BME280;4483;48.622;9.230;2024-01-06T04:05:49;96812.41;;;4.85;100.00
8894;BME280;4483;48.622;9.230;2024-01-06T04:08:15;96813.28;;;4.84;100.00
8894;BME280;4483;48.622;9.230;2024-01-06T04:10:42;96821.84;;;4.83;100.00
8894;BME280;4483;48.622;9.230;2024-01-06T04:13:10;96820.22;;;4.80;100.00
8894;BME280;4483;48.622;9.230;2024-01-06T04:15:37;96828.75;;;4.79;100.00
8894;BME280;4483;48.622;9.230;2024-01-06T04:18:04;96832.19;;;4.78;100.00
8894;BME280;4483;48.622;9.230;2024-01-06T04:20:32;96823.75;;;4.76;100.00
8894;BME280;4483;48.622;9.230;2024-01-06T04:23:00;96833.09;;;4.77;100.00
8894;BME280;4483;48.622;9.230;2024-01-06T04:25:27;96834.84;;;4.75;100.00
8894;BME280;4483;48.622;9.230;2024-01-06T04:27:53;96834.00;;;4.75;100.00
8894;BME280;4483;48.622;9.230;2024-01-06T04:30:20;96834.06;;;4.73;100.00
8894;BME280;4483;48.622;9.230;2024-01-06T04:32:46;96839.16;;;4.73;100.00
8894;BME280;4483;48.622;9.230;2024-01-06T04:35:14;96839.94;;;4.75;100.00
8894;BME280;4483;48.622;9.230;2024-01-06T04:37:41;96828.91;;;4.75;100.00
8894;BME280;4483;48.622;9.230;2024-01-06T04:40:10;96832.41;;;4.72;100.00
8894;BME280;4483;48.622;9.230;2024-01-06T04:42:37;96824.06;;;4.67;100.00
8894;BME280;4483;48.622;9.230;2024-01-06T04:45:05;96836.00;;;4.67;100.00
8894;BME280;4483;48.622;9.230;2024-01-06T04:47:31;96836.03;;;4.65;100.00
8894;BME280;4483;48.622;9.230;2024-01-06T04:49:58;96839.47;;;4.64;100.00
8894;BME280;4483;48.622;9.230;2024-01-06T04:52:25;96842.91;;;4.63;100.00
8894;BME280;4483;48.622;9.230;2024-01-06T04:54:51;96847.19;;;4.63;100.00
8894;BME280;4483;48.622;9.230;2024-01-06T04:57:19;96846.34;;;4.62;100.00
8894;BME280;4483;48.622;9.230;2024-01-06T04:59:46;96842.22;;;4.58;100.00
8894;BME280;4483;48.622;9.230;2024-01-06T05:02:13;96847.25;;;4.61;100.00
8894;BME280;4483;48.622;9.230;2024-01-06T05:04:40;96847.25;;;4.61;100.00
8894;BME280;4483;48.622;9.230;2024-01-06T05:07:06;96854.06;;;4.61;100.00
8894;BME280;4483;48.622;9.230;2024-01-06T05:09:33;96854.06;;;4.61;100.00
8894;BME280;4483;48.622;9.230;2024-01-06T05:11:59;96860.97;;;4.57;100.00
8894;BME280;4483;48.622;9.230;2024-01-06T05:14:27;96858.41;;;4.57;100.00
8894;BME280;4483;48.622;9.230;2024-01-06T05:16:54;96861.84;;;4.56;100.00
8894;BME280;4483;48.622;9.230;2024-01-06T05:19:21;96865.28;;;4.55;100.00
8894;BME280;4483;48.622;9.230;2024-01-06T05:21:48;96855.94;;;4.54;100.00
8894;BME280;4483;48.622;9.230;2024-01-06T05:24:15;96863.59;;;4.54;100.00
8894;BME280;4483;48.622;9.230;2024-01-06T05:26:42;96872.16;;;4.53;100.00
8894;BME280;4483;48.622;9.230;2024-01-06T05:29:08;96864.50;;;4.53;100.00
8894;BME280;4483;48.622;9.230;2024-01-06T05:31:37;96864.50;;;4.53;100.00
8894;BME280;4483;48.622;9.230;2024-01-06T05:34:03;96865.41;;;4.52;100.00
8894;BME280;4483;48.622;9.230;2024-01-06T05:36:30;96865.47;;;4.49;100.00
8894;BME280;4483;48.622;9.230;2024-01-06T05:38:57;96877.31;;;4.52;100.00
8894;BME280;4483;48.622;9.230;2024-01-06T05:41:24;96880.72;;;4.51;100.00
8894;BME280;4483;48.622;9.230;2024-01-06T05:43:51;96877.38;;;4.50;100.00
8894;BME280;4483;48.622;9.230;2024-01-06T05:46:21;96882.47;;;4.50;100.00
8894;BME280;4483;48.622;9.230;2024-01-06T05:48:49;96880.72;;;4.51;100.00
8894;BME280;4483;48.622;9.230;2024-01-06T05:51:16;96890.97;;;4.49;100.00
8894;BME280;4483;48.622;9.230;2024-01-06T05:53:42;96887.59;;;4.49;100.00
8894;BME280;4483;48.622;9.230;2024-01-06T05:56:09;96900.34;;;4.49;100.00
8894;BME280;4483;48.622;9.230;2024-01-06T05:58:36;96894.44;;;4.48;100.00
8894;BME280;4483;48.622;9.230;2024-01-06T06:01:03;96894.44;;;4.48;100.00
8894;BME280;4483;48.622;9.230;2024-01-06T06:03:30;96892.75;;;4.47;100.00
8894;BME280;4483;48.622;9.230;2024-01-06T06:05:58;96906.38;;;4.46;100.00
8894;BME280;4483;48.622;9.230;2024-01-06T06:08:25;96900.56;;;4.43;100.00
8894;BME280;4483;48.622;9.230;2024-01-06T06:10:51;96909.81;;;4.45;100.00
8894;BME280;4483;48.622;9.230;2024-01-06T06:13:27;96914.91;;;4.45;100.00
8894;BME280;4483;48.622;9.230;2024-01-06T06:15:54;96922.59;;;4.44;100.00
8894;BME280;4483;48.622;9.230;2024-01-06T06:18:21;96912.41;;;4.44;100.00
8894;BME280;4483;48.622;9.230;2024-01-06T06:20:48;96912.41;;;4.44;100.00
8894;BME280;4483;48.622;9.230;2024-01-06T06:23:16;96920.91;;;4.44;100.00
8894;BME280;4483;48.622;9.230;2024-01-06T06:25:42;96928.56;;;4.44;100.00
8894;BME280;4483;48.622;9.230;2024-01-06T06:28:09;96930.25;;;4.44;100.00
8894;BME280;4483;48.622;9.230;2024-01-06T06:30:35;96934.63;;;4.40;100.00
8894;BME280;4483;48.622;9.230;2024-01-06T06:33:02;96936.38;;;4.38;100.00
8894;BME280;4483;48.622;9.230;2024-01-06T06:35:29;96944.03;;;4.38;100.00
8894;BME280;4483;48.622;9.230;2024-01-06T06:37:55;96944.03;;;4.38;100.00
8894;BME280;4483;48.622;9.230;2024-01-06T06:40:23;96947.38;;;4.40;100.00
8894;BME280;4483;48.622;9.230;2024-01-06T06:42:50;96949.06;;;4.40;100.00
8894;BME280;4483;48.622;9.230;2024-01-06T06:45:16;96944.81;;;4.40;100.00
8894;BME280;4483;48.622;9.230;2024-01-06T06:47:47;96944.75;;;4.42;100.00
8894;BME280;4483;48.622;9.230;2024-01-06T06:50:14;96950.66;;;4.44;100.00
8894;BME280;4483;48.622;9.230;2024-01-06T06:52:41;96953.22;;;4.44;100.00
8894;BME280;4483;48.622;9.230;2024-01-06T06:55:08;96955.72;;;4.45;100.00
8894;BME280;4483;48.622;9.230;2024-01-06T06:57:36;96960.00;;;4.45;100.00
8894;BME280;4483;48.622;9.230;2024-01-06T07:00:04;96959.16;;;4.44;100.00
8894;BME280;4483;48.622;9.230;2024-01-06T07:02:32;96957.44;;;4.45;100.00
8894;BME280;4483;48.622;9.230;2024-01-06T07:04:59;96956.56;;;4.46;100.00
8894;BME280;4483;48.622;9.230;2024-01-06T07:07:25;96954.97;;;4.42;100.00
8894;BME280;4483;48.622;9.230;2024-01-06T07:09:52;96959.03;;;4.47;100.00
8894;BME280;4483;48.622;9.230;2024-01-06T07:12:19;96956.50;;;4.47;100.00
8894;BME280;4483;48.622;9.230;2024-01-06T07:14:47;96966.66;;;4.49;100.00
8894;BME280;4483;48.622;9.230;2024-01-06T07:17:13;96969.19;;;4.50;100.00
8894;BME280;4483;48.622;9.230;2024-01-06T07:19:40;96962.31;;;4.52;100.00
8894;BME280;4483;48.622;9.230;2024-01-06T07:22:07;96968.28;;;4.51;100.00
8894;BME280;4483;48.622;9.230;2024-01-06T07:24:33;96965.72;;;4.51;100.00
8894;BME280;4483;48.622;9.230;2024-01-06T07:27:01;96978.47;;;4.51;100.00
8894;BME280;4483;48.622;9.230;2024-01-06T07:29:28;96975.94;;;4.51;100.00
8894;BME280;4483;48.622;9.230;2024-01-06T07:31:56;96977.63;;;4.52;100.00
8894;BME280;4483;48.622;9.230;2024-01-06T07:34:23;96971.69;;;4.52;100.00
8894;BME280;4483;48.622;9.230;2024-01-06T07:36:50;96977.63;;;4.52;100.00
8894;BME280;4483;48.622;9.230;2024-01-06T07:39:17;96984.47;;;4.50;100.00
8894;BME280;4483;48.622;9.230;2024-01-06T07:41:44;96986.19;;;4.50;100.00
8894;BME280;4483;48.622;9.230;2024-01-06T07:44:11;96986.25;;;4.48;100.00
8894;BME280;4483;48.622;9.230;2024-01-06T07:46:38;96987.16;;;4.46;100.00
8894;BME280;4483;48.622;9.230;2024-01-06T07:49:07;96996.34;;;4.51;100.00
8894;BME280;4483;48.622;9.230;2024-01-06T07:51:33;96996.34;;;4.51;100.00
8894;BME280;4483;48.622;9.230;2024-01-06T07:54:00;96998.84;;;4.53;100.00
8894;BME280;4483;48.622;9.230;2024-01-06T07:56:27;96994.56;;;4.53;100.00
8894;BME280;4483;48.622;9.230;2024-01-06T07:58:54;96991.13;;;4.54;100.00
8894;BME280;4483;48.622;9.230;2024-01-06T08:01:20;96988.50;;;4.57;100.00
8894;BME280;4483;48.622;9.230;2024-01-06T08:03:47;96991.00;;;4.59;100.00
8894;BME280;4483;48.622;9.230;2024-01-06T08:06:15;96986.66;;;4.62;100.00
8894;BME280;4483;48.622;9.230;2024-01-06T08:08:42;96992.53;;;4.64;100.00
8894;BME280;4483;48.622;9.230;2024-01-06T08:11:08;96991.63;;;4.67;100.00
8894;BME280;4483;48.622;9.230;2024-01-06T08:13:35;96994.13;;;4.68;100.00
8894;BME280;4483;48.622;9.230;2024-01-06T08:16:02;96995.09;;;4.64;100.00
8894;BME280;4483;48.622;9.230;2024-01-06T08:18:29;97001.72;;;4.70;100.00
8894;BME280;4483;48.622;9.230;2024-01-06T08:20:55;97003.31;;;4.74;100.00
8894;BME280;4483;48.622;9.230;2024-01-06T08:23:23;97007.38;;;4.79;100.00
8894;BME280;4483;48.622;9.230;2024-01-06T08:25:51;97003.25;;;4.75;100.00
8894;BME280;4483;48.622;9.230;2024-01-06T08:28:17;97010.09;;;4.73;100.00
8894;BME280;4483;48.622;9.230;2024-01-06T08:30:45;97010.97;;;4.74;100.00
8894;BME280;4483;48.622;9.230;2024-01-06T08:33:11;97017.63;;;4.78;100.00
8894;BME280;4483;48.622;9.230;2024-01-06T08:35:38;97015.72;;;4.84;100.00
8894;BME280;4483;48.622;9.230;2024-01-06T08:38:05;97007.88;;;4.90;100.00
8894;BME280;4483;48.622;9.230;2024-01-06T08:40:34;97017.84;;;4.98;100.00
8894;BME280;4483;48.622;9.230;2024-01-06T08:43:02;97013.38;;;5.04;100.00
8894;BME280;4483;48.622;9.230;2024-01-06T08:45:29;97011.50;;;5.09;100.00
8894;BME280;4483;48.622;9.230;2024-01-06T08:47:56;97016.47;;;5.14;100.00
8894;BME280;4483;48.622;9.230;2024-01-06T08:50:23;97029.03;;;5.20;100.00
8894;BME280;4483;48.622;9.230;2024-01-06T08:52:49;97019.66;;;5.21;100.00
8894;BME280;4483;48.622;9.230;2024-01-06T08:55:16;97020.38;;;5.24;100.00
8894;BME280;4483;48.622;9.230;2024-01-06T08:57:44;97029.56;;;5.30;100.00
8894;BME280;4483;48.622;9.230;2024-01-06T09:00:12;97033.84;;;5.29;100.00
8894;BME280;4483;48.622;9.230;2024-01-06T09:02:39;97038.00;;;5.32;100.00
8894;BME280;4483;48.622;9.230;2024-01-06T09:05:06;97037.16;;;5.33;100.00
8894;BME280;4483;48.622;9.230;2024-01-06T09:07:33;97033.63;;;5.35;100.00
8894;BME280;4483;48.622;9.230;2024-01-06T09:10:00;97033.56;;;5.38;100.00
8894;BME280;4483;48.622;9.230;2024-01-06T09:12:26;97024.06;;;5.42;100.00
8894;BME280;4483;48.622;9.230;2024-01-06T09:14:54;97033.28;;;5.46;100.00
8894;BME280;4483;48.622;9.230;2024-01-06T09:17:21;97029.84;;;5.47;100.00
8894;BME280;4483;48.622;9.230;2024-01-06T09:19:48;97042.50;;;5.50;100.00
8894;BME280;4483;48.622;9.230;2024-01-06T09:22:14;97045.84;;;5.52;100.00
8894;BME280;4483;48.622;9.230;2024-01-06T09:24:41;97051.69;;;5.55;100.00
8894;BME280;4483;48.622;9.230;2024-01-06T09:27:08;97051.75;;;5.54;100.00
8894;BME280;4483;48.622;9.230;2024-01-06T09:29:34;97046.53;;;5.57;100.00
8894;BME280;4483;48.622;9.230;2024-01-06T09:32:03;97056.59;;;5.61;100.00
8894;BME280;4483;48.622;9.230;2024-01-06T09:34:29;97054.72;;;5.66;100.00
8894;BME280;4483;48.622;9.230;2024-01-06T09:36:56;97066.41;;;5.73;100.00
8894;BME280;4483;48.622;9.230;2024-01-06T09:39:23;97066.25;;;5.78;100.00
8894;BME280;4483;48.622;9.230;2024-01-06T09:41:49;97054.28;;;5.80;100.00
8894;BME280;4483;48.622;9.230;2024-01-06T09:44:16;97064.44;;;5.81;100.00
8894;BME280;4483;48.622;9.230;2024-01-06T09:46:44;97057.63;;;5.82;100.00
8894;BME280;4483;48.622;9.230;2024-01-06T09:49:12;97060.94;;;5.85;100.00
8894;BME280;4483;48.622;9.230;2024-01-06T09:51:40;97064.09;;;5.92;100.00
8894;BME280;4483;48.622;9.230;2024-01-06T09:54:08;97065.00;;;5.91;100.00
8894;BME280;4483;48.622;9.230;2024-01-06T09:56:36;97061.44;;;5.95;100.00
8894;BME280;4483;48.622;9.230;2024-01-06T09:59:02;97061.22;;;6.01;100.00
8894;BME280;4483;48.622;9.230;2024-01-06T10:01:29;97061.91;;;6.06;100.00
8894;BME280;4483;48.622;9.230;2024-01-06T10:03:56;97054.78;;;6.14;100.00
8894;BME280;4483;48.622;9.230;2024-01-06T10:06:24;97061.34;;;6.21;100.00
8894;BME280;4483;48.622;9.230;2024-01-06T10:08:52;97055.31;;;6.24;100.00
8894;BME280;4483;48.622;9.230;2024-01-06T10:11:19;97058.47;;;6.30;100.00
8894;BME280;4483;48.622;9.230;2024-01-06T10:13:48;97064.25;;;6.35;100.00
8894;BME280;4483;48.622;9.230;2024-01-06T10:16:15;97056.53;;;6.37;100.00
8894;BME280;4483;48.622;9.230;2024-01-06T10:18:43;97062.38;;;6.40;100.00
8894;BME280;4483;48.622;9.230;2024-01-06T10:21:10;97058.03;;;6.42;100.00
8894;BME280;4483;48.622;9.230;2024-01-06T10:23:38;97060.41;;;6.47;100.00
8894;BME280;4483;48.622;9.230;2024-01-06T10:26:06;97051.66;;;6.52;100.00
8894;BME280;4483;48.622;9.230;2024-01-06T10:28:33;97059.84;;;6.62;100.00
8894;BME280;4483;48.622;9.230;2024-01-06T10:31:00;97058.78;;;6.67;100.00
8894;BME280;4483;48.622;9.230;2024-01-06T10:33:27;97058.56;;;6.73;100.00
8894;BME280;4483;48.622;9.230;2024-01-06T10:35:54;97060.78;;;6.82;100.00
8894;BME280;4483;48.622;9.230;2024-01-06T10:38:21;97059.41;;;6.95;100.00
8894;BME280;4483;48.622;9.230;2024-01-06T10:41:07;97051.53;;;7.00;100.00
8894;BME280;4483;48.622;9.230;2024-01-06T10:43:35;97049.53;;;7.08;100.00
8894;BME280;4483;48.622;9.230;2024-01-06T10:46:06;97055.34;;;7.11;100.00
8894;BME280;4483;48.622;9.230;2024-01-06T10:48:36;97055.91;;;7.20;100.00
8894;BME280;4483;48.622;9.230;2024-01-06T10:51:04;97052.19;;;7.27;100.00
8894;BME280;4483;48.622;9.230;2024-01-06T10:53:33;97044.50;;;7.27;100.00
8894;BME280;4483;48.622;9.230;2024-01-06T10:56:01;97062.31;;;7.30;100.00
8894;BME280;4483;48.622;9.230;2024-01-06T10:58:30;97044.59;;;7.24;100.00
8894;BME280;4483;48.622;9.230;2024-01-06T11:00:58;97049.88;;;7.21;100.00
8894;BME280;4483;48.622;9.230;2024-01-06T11:03:27;97051.78;;;7.16;100.00
8894;BME280;4483;48.622;9.230;2024-01-06T11:05:55;97042.69;;;7.08;100.00
8894;BME280;4483;48.622;9.230;2024-01-06T11:08:23;97052.03;;;7.09;100.00
8894;BME280;4483;48.622;9.230;2024-01-06T11:10:51;97057.13;;;7.09;100.00
8894;BME280;4483;48.622;9.230;2024-01-06T11:13:22;97043.63;;;7.06;100.00
8894;BME280;4483;48.622;9.230;2024-01-06T11:15:51;97053.09;;;7.04;100.00
8894;BME280;4483;48.622;9.230;2024-01-06T11:18:32;97047.03;;;7.06;100.00
8894;BME280;4483;48.622;9.230;2024-01-06T11:21:19;97046.91;;;7.09;100.00
8894;BME280;4483;48.622;9.230;2024-01-06T11:24:18;97053.66;;;7.10;100.00
8894;BME280;4483;48.622;9.230;2024-01-06T11:26:50;97047.66;;;7.11;100.00
8894;BME280;4483;48.622;9.230;2024-01-06T11:29:17;97040.63;;;7.17;100.00
8894;BME280;4483;48.622;9.230;2024-01-06T11:32:19;97036.28;;;7.19;100.00
8894;BME280;4483;48.622;9.230;2024-01-06T11:34:50;97031.16;;;7.19;100.00
8894;BME280;4483;48.622;9.230;2024-01-06T11:37:20;97028.47;;;7.22;100.00
8894;BME280;4483;48.622;9.230;2024-01-06T11:39:50;97032.56;;;7.26;100.00
8894;BME280;4483;48.622;9.230;2024-01-06T11:42:18;97020.69;;;7.25;100.00
8894;BME280;4483;48.622;9.230;2024-01-06T11:44:50;97034.25;;;7.27;100.00
8894;BME280;4483;48.622;9.230;2024-01-06T11:47:18;97031.69;;;7.27;100.00
8894;BME280;4483;48.622;9.230;2024-01-06T11:49:54;97027.44;;;7.26;100.00
8894;BME280;4483;48.622;9.230;2024-01-06T11:52:22;97026.56;;;7.27;100.00
8894;BME280;4483;48.622;9.230;2024-01-06T11:54:52;97027.34;;;7.29;100.00
8894;BME280;4483;48.622;9.230;2024-01-06T11:57:18;97024.00;;;7.27;100.00
8894;BME280;4483;48.622;9.230;2024-01-06T11:59:45;97031.63;;;7.28;100.00
8894;BME280;4483;48.622;9.230;2024-01-06T12:02:12;97023.88;;;7.30;100.00
8894;BME280;4483;48.622;9.230;2024-01-06T12:04:40;97020.06;;;7.40;100.00
8894;BME280;4483;48.622;9.230;2024-01-06T12:07:08;97014.94;;;7.40;100.00
8894;BME280;4483;48.622;9.230;2024-01-06T12:09:35;97017.28;;;7.44;100.00
8894;BME280;4483;48.622;9.230;2024-01-06T12:12:03;97009.53;;;7.46;100.00
8894;BME280;4483;48.622;9.230;2024-01-06T12:14:31;97009.34;;;7.50;100.00
8894;BME280;4483;48.622;9.230;2024-01-06T12:16:58;97014.28;;;7.55;100.00
8894;BME280;4483;48.622;9.230;2024-01-06T12:19:28;97006.47;;;7.58;100.00
8894;BME280;4483;48.622;9.230;2024-01-06T12:21:57;97010.69;;;7.59;100.00
8894;BME280;4483;48.622;9.230;2024-01-06T12:24:24;97009.03;;;7.58;100.00
8894;BME280;4483;48.622;9.230;2024-01-06T12:26:51;97009.03;;;7.58;100.00
8894;BME280;4483;48.622;9.230;2024-01-06T12:29:17;97004.72;;;7.58;100.00
8894;BME280;4483;48.622;9.230;2024-01-06T12:31:46;96998.91;;;7.55;100.00
8894;BME280;4483;48.622;9.230;2024-01-06T12:34:13;96992.75;;;7.59;100.00
8894;BME280;4483;48.622;9.230;2024-01-06T12:36:41;96996.09;;;7.61;100.00
8894;BME280;4483;48.622;9.230;2024-01-06T12:39:11;96994.44;;;7.60;100.00
8894;BME280;4483;48.622;9.230;2024-01-06T12:41:40;97000.44;;;7.59;100.00
8894;BME280;4483;48.622;9.230;2024-01-06T12:44:07;96993.66;;;7.58;100.00
8894;BME280;4483;48.622;9.230;2024-01-06T12:46:33;97000.69;;;7.53;100.00
8894;BME280;4483;48.622;9.230;2024-01-06T12:49:00;96998.41;;;7.47;100.00
8894;BME280;4483;48.622;9.230;2024-01-06T12:51:27;97001.03;;;7.45;100.00
8894;BME280;4483;48.622;9.230;2024-01-06T12:53:54;96996.88;;;7.43;100.00
8894;BME280;4483;48.622;9.230;2024-01-06T12:56:22;96992.69;;;7.40;100.00
8894;BME280;4483;48.622;9.230;2024-01-06T12:58:49;96998.78;;;7.38;100.00
8894;BME280;4483;48.622;9.230;2024-01-06T13:01:15;96997.09;;;7.37;100.00
8894;BME280;4483;48.622;9.230;2024-01-06T13:03:42;97008.34;;;7.34;100.00
8894;BME280;4483;48.622;9.230;2024-01-06T13:06:09;96997.31;;;7.32;100.00
8894;BME280;4483;48.622;9.230;2024-01-06T13:08:36;97005.88;;;7.31;100.00
8894;BME280;4483;48.622;9.230;2024-01-06T13:11:03;97010.28;;;7.28;100.00
8894;BME280;4483;48.622;9.230;2024-01-06T13:13:31;97006.06;;;7.27;100.00
8894;BME280;4483;48.622;9.230;2024-01-06T13:15:57;97008.56;;;7.28;100.00
8894;BME280;4483;48.622;9.230;2024-01-06T13:18:24;97010.22;;;7.29;100.00
8894;BME280;4483;48.622;9.230;2024-01-06T13:20:51;97010.19;;;7.31;100.00
8894;BME280;4483;48.622;9.230;2024-01-06T13:23:18;97013.63;;;7.30;100.00